sensor_id;sensor_type;location;lat;lon;timestamp;pressure;altitude;pressure_sealevel;temperature;humidity
49943;BME280;36011;53.362;58.948;2022-12-20T00:00:23;96721.22;;;-7.86;55.41
49943;BME280;36011;53.362;58.948;2022-12-20T00:03:26;96744.09;;;-8.07;55.84
49943;BME280;36011;53.362;58.948;2022-12-20T00:06:30;96747.44;;;-8.18;55.54
49943;BME280;36011;53.362;58.948;2022-12-20T00:09:31;96741.41;;;-8.30;56.47
49943;BME280;36011;53.362;58.948;2022-12-20T00:12:34;96731.97;;;-8.45;56.53
49943;BME280;36011;53.362;58.948;2022-12-20T00:16:04;96704.78;;;-8.43;56.84
49943;BME280;36011;53.362;58.948;2022-12-20T00:19:08;96710.72;;;-8.46;57.45
49943;BME280;36011;53.362;58.948;2022-12-20T00:22:10;96728.59;;;-8.38;57.13
49943;BME280;36011;53.362;58.948;2022-12-20T00:25:11;96744.78;;;-8.34;56.75
49943;BME280;36011;53.362;58.948;2022-12-20T00:28:15;96743.16;;;-8.22;56.85
49943;BME280;36011;53.362;58.948;2022-12-20T00:31:17;96755.88;;;-8.28;56.71
49943;BME280;36011;53.362;58.948;2022-12-20T00:34:18;96722.66;;;-8.37;56.80
49943;BME280;36011;53.362;58.948;2022-12-20T00:37:21;96721.03;;;-8.26;57.08
49943;BME280;36011;53.362;58.948;2022-12-20T00:40:22;96732.91;;;-8.31;56.84
49943;BME280;36011;53.362;58.948;2022-12-20T00:43:24;96729.47;;;-8.38;57.28
49943;BME280;36011;53.362;58.948;2022-12-20T00:46:25;96718.38;;;-8.35;57.57
49943;BME280;36011;53.362;58.948;2022-12-20T00:49:28;96740.59;;;-8.25;56.15
49943;BME280;36011;53.362;58.948;2022-12-20T00:52:29;96749.81;;;-8.47;56.98
49943;BME280;36011;53.362;58.948;2022-12-20T00:55:31;96740.41;;;-8.55;57.52
49943;BME280;36011;53.362;58.948;2022-12-20T00:58:32;96735.38;;;-8.46;57.17
49943;BME280;36011;53.362;58.948;2022-12-20T01:01:34;96724.25;;;-8.53;57.27
49943;BME280;36011;53.362;58.948;2022-12-20T01:04:35;96709.81;;;-8.52;57.60
49943;BME280;36011;53.362;58.948;2022-12-20T01:07:36;96738.72;;;-8.53;57.00
49943;BME280;36011;53.362;58.948;2022-12-20T01:10:42;96760.78;;;-8.59;57.68
49943;BME280;36011;53.362;58.948;2022-12-20T01:13:45;96767.69;;;-8.47;56.85
49943;BME280;36011;53.362;58.948;2022-12-20T01:16:49;96755.72;;;-8.57;57.59
49943;BME280;36011;53.362;58.948;2022-12-20T01:19:51;96742.09;;;-8.57;57.23
49943;BME280;36011;53.362;58.948;2022-12-20T01:22:52;96744.75;;;-8.45;57.09
49943;BME280;36011;53.362;58.948;2022-12-20T01:25:53;96751.47;;;-8.53;57.43
49943;BME280;36011;53.362;58.948;2022-12-20T01:28:58;96765.94;;;-8.54;57.24
49943;BME280;36011;53.362;58.948;2022-12-20T01:31:59;96782.16;;;-8.49;56.83
49943;BME280;36011;53.362;58.948;2022-12-20T01:35:02;96771.88;;;-8.55;56.77
49943;BME280;36011;53.362;58.948;2022-12-20T01:38:05;96784.66;;;-8.50;56.65
49943;BME280;36011;53.362;58.948;2022-12-20T01:41:19;96789.72;;;-8.56;56.93
49943;BME280;36011;53.362;58.948;2022-12-20T01:47:23;96763.38;;;-8.54;57.36
49943;BME280;36011;53.362;58.948;2022-12-20T01:50:25;96778.75;;;-8.45;57.31
49943;BME280;36011;53.362;58.948;2022-12-20T01:53:28;96776.25;;;-8.40;56.97
49943;BME280;36011;53.362;58.948;2022-12-20T01:56:31;96775.41;;;-8.38;56.64
49943;BME280;36011;53.362;58.948;2022-12-20T01:59:32;96784.66;;;-8.50;56.89
49943;BME280;36011;53.362;58.948;2022-12-20T02:02:36;96794.91;;;-8.47;57.04
49943;BME280;36011;53.362;58.948;2022-12-20T02:05:38;96802.56;;;-8.46;57.26
49943;BME280;36011;53.362;58.948;2022-12-20T02:08:39;96789.81;;;-8.38;57.08
49943;BME280;36011;53.362;58.948;2022-12-20T02:30:54;96791.59;;;-8.31;55.41
49943;BME280;36011;53.362;58.948;2022-12-20T02:33:59;96805.16;;;-8.35;54.28
49943;BME280;36011;53.362;58.948;2022-12-20T02:37:02;96813.53;;;-8.57;55.01
49943;BME280;36011;53.362;58.948;2022-12-20T02:40:03;96815.97;;;-8.71;55.60
49943;BME280;36011;53.362;58.948;2022-12-20T02:43:05;96823.47;;;-8.85;55.22
49943;BME280;36011;53.362;58.948;2022-12-20T02:46:29;96830.13;;;-8.99;55.68
49943;BME280;36011;53.362;58.948;2022-12-20T02:49:34;96829.94;;;-9.15;56.38
49943;BME280;36011;53.362;58.948;2022-12-20T02:52:41;96830.69;;;-9.23;56.44
49943;BME280;36011;53.362;58.948;2022-12-20T02:55:45;96846.84;;;-9.23;56.37
49943;BME280;36011;53.362;58.948;2022-12-20T02:58:48;96848.34;;;-9.37;55.98
49943;BME280;36011;53.362;58.948;2022-12-20T03:01:52;96858.38;;;-9.53;56.73
49943;BME280;36011;53.362;58.948;2022-12-20T03:04:56;96862.47;;;-9.62;56.50
49943;BME280;36011;53.362;58.948;2022-12-20T03:08:03;96847.84;;;-9.77;56.89
49943;BME280;36011;53.362;58.948;2022-12-20T03:11:04;96835.09;;;-9.77;57.26
49943;BME280;36011;53.362;58.948;2022-12-20T03:14:07;96834.28;;;-9.76;57.23
49943;BME280;36011;53.362;58.948;2022-12-20T03:17:08;96832.53;;;-9.80;57.05
49943;BME280;36011;53.362;58.948;2022-12-20T03:20:15;96844.31;;;-9.85;57.03
49943;BME280;36011;53.362;58.948;2022-12-20T03:23:19;96852.72;;;-9.92;56.83
49943;BME280;36011;53.362;58.948;2022-12-20T03:26:23;96859.25;;;-10.10;57.04
49943;BME280;36011;53.362;58.948;2022-12-20T03:29:25;96862.47;;;-10.20;57.15
49943;BME280;36011;53.362;58.948;2022-12-20T03:36:21;96861.69;;;-10.18;56.51
49943;BME280;36011;53.362;58.948;2022-12-20T03:39:26;96861.44;;;-10.34;56.80
49943;BME280;36011;53.362;58.948;2022-12-20T03:42:27;96856.03;;;-10.54;56.94
49943;BME280;36011;53.362;58.948;2022-12-20T03:45:32;96872.91;;;-10.58;56.93
49943;BME280;36011;53.362;58.948;2022-12-20T03:48:38;96890.44;;;-10.73;57.21
49943;BME280;36011;53.362;58.948;2022-12-20T03:51:40;96897.94;;;-10.79;57.42
49943;BME280;36011;53.362;58.948;2022-12-20T03:54:44;96893.44;;;-10.93;57.67
49943;BME280;36011;53.362;58.948;2022-12-20T03:57:48;96905.34;;;-10.92;57.92
49943;BME280;36011;53.362;58.948;2022-12-20T04:00:54;96904.22;;;-11.06;58.10
49943;BME280;36011;53.362;58.948;2022-12-20T04:03:55;96899.03;;;-11.11;58.17
49943;BME280;36011;53.362;58.948;2022-12-20T04:07:01;96894.59;;;-11.22;58.16
49943;BME280;36011;53.362;58.948;2022-12-20T04:10:08;96907.91;;;-11.33;58.25
49943;BME280;36011;53.362;58.948;2022-12-20T04:13:09;96914.50;;;-11.41;58.64
49943;BME280;36011;53.362;58.948;2022-12-20T04:16:16;96911.88;;;-11.45;58.94
49943;BME280;36011;53.362;58.948;2022-12-20T04:19:25;96914.38;;;-11.47;59.13
49943;BME280;36011;53.362;58.948;2022-12-20T04:22:31;96897.69;;;-11.36;59.33
49943;BME280;36011;53.362;58.948;2022-12-20T04:25:34;96908.84;;;-11.29;59.07
49943;BME280;36011;53.362;58.948;2022-12-20T04:28:35;96908.91;;;-11.26;59.01
49943;BME280;36011;53.362;58.948;2022-12-20T04:31:39;96924.16;;;-11.26;58.82
49943;BME280;36011;53.362;58.948;2022-12-20T04:34:45;96936.69;;;-11.34;59.09
49943;BME280;36011;53.362;58.948;2022-12-20T04:37:49;96935.72;;;-11.39;59.04
49943;BME280;36011;53.362;58.948;2022-12-20T04:40:55;96929.69;;;-11.44;59.65
49943;BME280;36011;53.362;58.948;2022-12-20T04:43:57;96929.56;;;-11.50;59.23
49943;BME280;36011;53.362;58.948;2022-12-20T04:47:03;96926.88;;;-11.56;59.56
49943;BME280;36011;53.362;58.948;2022-12-20T04:50:04;96938.75;;;-11.55;59.82
49943;BME280;36011;53.362;58.948;2022-12-20T04:53:11;96934.63;;;-11.50;59.70
49943;BME280;36011;53.362;58.948;2022-12-20T04:56:32;96940.06;;;-11.35;59.47
49943;BME280;36011;53.362;58.948;2022-12-20T04:59:38;96940.06;;;-11.35;59.42
49943;BME280;36011;53.362;58.948;2022-12-20T05:02:49;96948.66;;;-11.26;59.24
49943;BME280;36011;53.362;58.948;2022-12-20T05:05:56;96947.88;;;-11.24;58.99
49943;BME280;36011;53.362;58.948;2022-12-20T05:08:57;96956.41;;;-11.22;59.08
49943;BME280;36011;53.362;58.948;2022-12-20T05:12:01;96956.41;;;-11.22;59.13
49943;BME280;36011;53.362;58.948;2022-12-20T05:15:04;96955.72;;;-11.13;58.91
49943;BME280;36011;53.362;58.948;2022-12-20T05:18:05;96954.16;;;-11.08;59.05
49943;BME280;36011;53.362;58.948;2022-12-20T05:21:06;96956.00;;;-11.01;58.89
49943;BME280;36011;53.362;58.948;2022-12-20T05:24:27;96957.88;;;-10.91;58.66
49943;BME280;36011;53.362;58.948;2022-12-20T05:27:52;96953.81;;;-10.82;58.64
49943;BME280;36011;53.362;58.948;2022-12-20T05:30:53;96963.34;;;-10.72;58.56
49943;BME280;36011;53.362;58.948;2022-12-20T05:33:56;96955.91;;;-10.62;58.23
49943;BME280;36011;53.362;58.948;2022-12-20T05:37:06;96944.97;;;-10.56;57.98
49943;BME280;36011;53.362;58.948;2022-12-20T05:40:09;96958.59;;;-10.54;57.57
49943;BME280;36011;53.362;58.948;2022-12-20T05:43:14;96966.38;;;-10.46;57.48
49943;BME280;36011;53.362;58.948;2022-12-20T05:46:17;96971.66;;;-10.34;57.58
49943;BME280;36011;53.362;58.948;2022-12-20T05:49:20;96978.56;;;-10.28;57.48
49943;BME280;36011;53.362;58.948;2022-12-20T05:52:24;96971.78;;;-10.25;57.81
49943;BME280;36011;53.362;58.948;2022-12-20T05:55:25;96969.28;;;-10.23;57.08
49943;BME280;36011;53.362;58.948;2022-12-20T05:58:34;96972.78;;;-10.18;57.36
49943;BME280;36011;53.362;58.948;2022-12-20T06:01:38;96976.31;;;-10.10;57.73
49943;BME280;36011;53.362;58.948;2022-12-20T06:04:41;96979.72;;;-10.08;57.30
49943;BME280;36011;53.362;58.948;2022-12-20T06:07:42;96982.22;;;-10.11;57.43
49943;BME280;36011;53.362;58.948;2022-12-20T06:10:46;96982.31;;;-10.05;57.25
49943;BME280;36011;53.362;58.948;2022-12-20T06:13:50;96980.03;;;-9.89;56.95
49943;BME280;36011;53.362;58.948;2022-12-20T06:16:54;96985.31;;;-9.77;56.56
49943;BME280;36011;53.362;58.948;2022-12-20T06:19:55;96981.31;;;-9.63;57.04
49943;BME280;36011;53.362;58.948;2022-12-20T06:22:56;96980.59;;;-9.54;57.14
49943;BME280;36011;53.362;58.948;2022-12-20T06:25:57;96980.63;;;-9.53;56.86
49943;BME280;36011;53.362;58.948;2022-12-20T06:29:04;96980.63;;;-9.53;56.55
49943;BME280;36011;53.362;58.948;2022-12-20T06:32:09;96984.06;;;-9.51;56.09
49943;BME280;36011;53.362;58.948;2022-12-20T06:35:11;96975.41;;;-9.62;56.07
49943;BME280;36011;53.362;58.948;2022-12-20T06:38:17;96987.81;;;-9.82;55.98
49943;BME280;36011;53.362;58.948;2022-12-20T06:41:20;96984.09;;;-10.01;56.23
49943;BME280;36011;53.362;58.948;2022-12-20T06:44:31;96976.25;;;-10.13;56.03
49943;BME280;36011;53.362;58.948;2022-12-20T06:47:34;96976.25;;;-10.13;56.62
49943;BME280;36011;53.362;58.948;2022-12-20T06:50:43;96969.53;;;-10.08;56.81
49943;BME280;36011;53.362;58.948;2022-12-20T06:53:49;96965.47;;;-9.98;56.82
49943;BME280;36011;53.362;58.948;2022-12-20T06:56:53;96963.94;;;-9.90;56.45
49943;BME280;36011;53.362;58.948;2022-12-20T06:59:54;96962.31;;;-9.83;56.59
49943;BME280;36011;53.362;58.948;2022-12-20T07:02:55;96960.84;;;-9.70;56.49
49943;BME280;36011;53.362;58.948;2022-12-20T07:06:02;96959.34;;;-9.56;56.05
49943;BME280;36011;53.362;58.948;2022-12-20T07:09:08;96952.97;;;-9.27;55.91
49943;BME280;36011;53.362;58.948;2022-12-20T07:12:12;96957.69;;;-8.90;55.54
49943;BME280;36011;53.362;58.948;2022-12-20T07:15:16;96949.53;;;-8.62;54.79
49943;BME280;36011;53.362;58.948;2022-12-20T07:18:20;96957.63;;;-7.04;55.24
49943;BME280;36011;53.362;58.948;2022-12-20T07:21:27;96960.63;;;-1.44;48.27
49943;BME280;36011;53.362;58.948;2022-12-20T07:24:28;96957.84;;;4.10;40.28
49943;BME280;36011;53.362;58.948;2022-12-20T07:27:29;96951.28;;;8.36;34.51
49943;BME280;36011;53.362;58.948;2022-12-20T07:30:38;96952.09;;;11.93;29.93
49943;BME280;36011;53.362;58.948;2022-12-20T07:33:45;96953.44;;;14.37;26.90
49943;BME280;36011;53.362;58.948;2022-12-20T07:36:57;96959.25;;;15.41;27.08
49943;BME280;36011;53.362;58.948;2022-12-20T07:40:02;96962.00;;;14.64;25.56
49943;BME280;36011;53.362;58.948;2022-12-20T07:43:03;96963.31;;;14.35;24.09
49943;BME280;36011;53.362;58.948;2022-12-20T07:46:05;96957.06;;;14.70;29.32
49943;BME280;36011;53.362;58.948;2022-12-20T07:49:11;96959.09;;;15.42;28.28
49943;BME280;36011;53.362;58.948;2022-12-20T07:52:13;96964.88;;;17.22;27.23
49943;BME280;36011;53.362;58.948;2022-12-20T07:55:19;96964.56;;;18.87;27.27
49943;BME280;36011;53.362;58.948;2022-12-20T07:58:25;96950.69;;;20.09;22.94
49943;BME280;36011;53.362;58.948;2022-12-20T08:01:27;96954.44;;;20.50;20.90
49943;BME280;36011;53.362;58.948;2022-12-20T08:04:33;96946.16;;;20.09;24.57
49943;BME280;36011;53.362;58.948;2022-12-20T08:07:36;96947.31;;;19.81;25.07
49943;BME280;36011;53.362;58.948;2022-12-20T08:10:44;96945.34;;;20.09;23.96
49943;BME280;36011;53.362;58.948;2022-12-20T08:13:48;96950.47;;;20.54;23.49
49943;BME280;36011;53.362;58.948;2022-12-20T08:16:53;96945.19;;;20.71;21.84
49943;BME280;36011;53.362;58.948;2022-12-20T08:19:54;96933.84;;;20.42;19.85
49943;BME280;36011;53.362;58.948;2022-12-20T08:23:06;96931.19;;;20.16;18.47
49943;BME280;36011;53.362;58.948;2022-12-20T08:26:08;96915.50;;;20.13;18.55
49943;BME280;36011;53.362;58.948;2022-12-20T08:29:14;96925.09;;;21.01;19.85
49943;BME280;36011;53.362;58.948;2022-12-20T08:32:20;96929.03;;;21.56;20.64
49943;BME280;36011;53.362;58.948;2022-12-20T08:35:26;96926.00;;;22.00;20.38
49943;BME280;36011;53.362;58.948;2022-12-20T08:38:29;96920.50;;;21.52;17.54
49943;BME280;36011;53.362;58.948;2022-12-20T08:41:33;96921.38;;;20.94;16.37
49943;BME280;36011;53.362;58.948;2022-12-20T08:44:39;96929.91;;;20.97;18.08
49943;BME280;36011;53.362;58.948;2022-12-20T08:47:47;96931.97;;;21.28;19.26
49943;BME280;36011;53.362;58.948;2022-12-20T08:50:57;96925.13;;;21.34;17.52
49943;BME280;36011;53.362;58.948;2022-12-20T08:54:05;96931.22;;;20.85;16.16
49943;BME280;36011;53.362;58.948;2022-12-20T08:57:09;96929.03;;;20.89;18.26
49943;BME280;36011;53.362;58.948;2022-12-20T09:00:10;96922.56;;;20.99;14.81
49943;BME280;36011;53.362;58.948;2022-12-20T09:03:12;96925.34;;;21.40;18.06
49943;BME280;36011;53.362;58.948;2022-12-20T09:06:17;96928.84;;;21.65;17.57
49943;BME280;36011;53.362;58.948;2022-12-20T09:09:20;96939.75;;;21.88;16.93
49943;BME280;36011;53.362;58.948;2022-12-20T09:12:24;96941.75;;;21.86;15.67
49943;BME280;36011;53.362;58.948;2022-12-20T09:15:30;96935.84;;;21.99;18.29
49943;BME280;36011;53.362;58.948;2022-12-20T09:18:38;96932.44;;;22.46;18.28
49943;BME280;36011;53.362;58.948;2022-12-20T09:21:42;96933.63;;;22.44;17.97
49943;BME280;36011;53.362;58.948;2022-12-20T09:24:45;96928.50;;;22.26;16.48
49943;BME280;36011;53.362;58.948;2022-12-20T09:27:50;96927.13;;;22.13;15.23
49943;BME280;36011;53.362;58.948;2022-12-20T09:31:01;96926.66;;;21.93;14.25
49943;BME280;36011;53.362;58.948;2022-12-20T09:34:06;96917.16;;;21.58;17.33
49943;BME280;36011;53.362;58.948;2022-12-20T09:37:10;96907.88;;;21.28;15.21
49943;BME280;36011;53.362;58.948;2022-12-20T09:40:15;96917.13;;;20.67;18.77
49943;BME280;36011;53.362;58.948;2022-12-20T09:46:53;96910.34;;;19.94;17.94
49943;BME280;36011;53.362;58.948;2022-12-20T09:50:10;96917.09;;;19.80;18.77
49943;BME280;36011;53.362;58.948;2022-12-20T09:53:36;96909.09;;;19.80;17.88
49943;BME280;36011;53.362;58.948;2022-12-20T09:56:55;96907.91;;;19.57;14.42
49943;BME280;36011;53.362;58.948;2022-12-20T10:00:09;96915.84;;;19.13;14.25
49943;BME280;36011;53.362;58.948;2022-12-20T10:03:21;96922.44;;;18.35;15.59
49943;BME280;36011;53.362;58.948;2022-12-20T10:16:42;96906.69;;;4.53;24.95
49943;BME280;36011;53.362;58.948;2022-12-20T10:22:58;96914.38;;;1.21;33.62
49943;BME280;36011;53.362;58.948;2022-12-20T10:26:10;96915.13;;;0.23;34.61
49943;BME280;36011;53.362;58.948;2022-12-20T10:29:17;96907.31;;;-0.55;35.40
49943;BME280;36011;53.362;58.948;2022-12-20T10:32:23;96909.50;;;-1.23;34.54
49943;BME280;36011;53.362;58.948;2022-12-20T10:35:33;96910.47;;;-1.83;34.99
49943;BME280;36011;53.362;58.948;2022-12-20T10:38:43;96904.28;;;-2.29;34.51
49943;BME280;36011;53.362;58.948;2022-12-20T10:41:46;96903.91;;;-2.66;34.50
49943;BME280;36011;53.362;58.948;2022-12-20T10:44:55;96908.59;;;-3.03;34.40
49943;BME280;36011;53.362;58.948;2022-12-20T10:48:00;96907.25;;;-3.38;35.33
49943;BME280;36011;53.362;58.948;2022-12-20T10:54:21;96906.94;;;-4.06;35.69
49943;BME280;36011;53.362;58.948;2022-12-20T10:57:24;96914.00;;;-4.37;35.57
49943;BME280;36011;53.362;58.948;2022-12-20T11:00:27;96903.84;;;-4.60;35.68
49943;BME280;36011;53.362;58.948;2022-12-20T11:03:34;96911.66;;;-4.83;35.56
49943;BME280;36011;53.362;58.948;2022-12-20T11:06:49;96911.72;;;-5.06;36.25
49943;BME280;36011;53.362;58.948;2022-12-20T11:09:54;96906.66;;;-5.26;35.93
49943;BME280;36011;53.362;58.948;2022-12-20T11:12:59;96898.97;;;-5.48;35.55
49943;BME280;36011;53.362;58.948;2022-12-20T11:16:01;96905.81;;;-5.67;36.41
49943;BME280;36011;53.362;58.948;2022-12-20T11:54:11;96906.81;;;-7.85;37.46
49943;BME280;36011;53.362;58.948;2022-12-20T12:00:43;96907.34;;;-8.26;38.75
49943;BME280;36011;53.362;58.948;2022-12-20T12:07:02;96912.97;;;-8.61;38.87
49943;BME280;36011;53.362;58.948;2022-12-20T12:10:19;96917.06;;;-8.75;39.55
49943;BME280;36011;53.362;58.948;2022-12-20T12:13:29;96912.69;;;-8.87;39.33
49943;BME280;36011;53.362;58.948;2022-12-20T12:16:44;96916.06;;;-8.91;39.36
49943;BME280;36011;53.362;58.948;2022-12-20T12:19:55;96910.84;;;-8.98;39.62
49943;BME280;36011;53.362;58.948;2022-12-20T12:23:06;96904.84;;;-9.04;39.76
49943;BME280;36011;53.362;58.948;2022-12-20T12:26:32;96914.97;;;-9.10;40.94
49943;BME280;36011;53.362;58.948;2022-12-20T12:29:39;96920.00;;;-9.16;40.17
49943;BME280;36011;53.362;58.948;2022-12-20T12:32:59;96911.34;;;-9.27;40.97
49943;BME280;36011;53.362;58.948;2022-12-20T12:46:13;96914.78;;;-9.84;40.94
49943;BME280;36011;53.362;58.948;2022-12-20T12:49:16;96913.81;;;-9.92;40.97
49943;BME280;36011;53.362;58.948;2022-12-20T12:52:34;96922.09;;;-10.06;40.99
49943;BME280;36011;53.362;58.948;2022-12-20T12:55:42;96907.44;;;-10.21;41.46
49943;BME280;36011;53.362;58.948;2022-12-20T12:59:07;96915.78;;;-10.29;41.68
49943;BME280;36011;53.362;58.948;2022-12-20T13:08:16;96918.81;;;-10.50;41.70
49943;BME280;36011;53.362;58.948;2022-12-20T13:11:28;96919.50;;;-10.59;41.96
49943;BME280;36011;53.362;58.948;2022-12-20T13:17:41;96907.28;;;-10.78;41.82
49943;BME280;36011;53.362;58.948;2022-12-20T13:21:15;96906.19;;;-10.91;42.01
49943;BME280;36011;53.362;58.948;2022-12-20T13:27:30;96901.69;;;-11.06;42.57
49943;BME280;36011;53.362;58.948;2022-12-20T13:30:32;96909.22;;;-11.11;42.38
49943;BME280;36011;53.362;58.948;2022-12-20T13:33:43;96904.75;;;-11.21;42.48
49943;BME280;36011;53.362;58.948;2022-12-20T13:36:45;96902.88;;;-11.30;42.73
49943;BME280;36011;53.362;58.948;2022-12-20T13:39:59;96907.78;;;-11.39;43.00
49943;BME280;36011;53.362;58.948;2022-12-20T13:46:30;96898.97;;;-11.56;42.92
49943;BME280;36011;53.362;58.948;2022-12-20T13:50:11;96903.97;;;-11.59;43.09
49943;BME280;36011;53.362;58.948;2022-12-20T13:53:25;96905.53;;;-11.64;42.97
49943;BME280;36011;53.362;58.948;2022-12-20T13:56:34;96898.78;;;-11.64;42.92
49943;BME280;36011;53.362;58.948;2022-12-20T13:59:39;96902.28;;;-11.60;43.24
49943;BME280;36011;53.362;58.948;2022-12-20T14:02:40;96906.56;;;-11.56;42.63
49943;BME280;36011;53.362;58.948;2022-12-20T14:05:44;96900.59;;;-11.58;43.03
49943;BME280;36011;53.362;58.948;2022-12-20T14:08:48;96897.94;;;-11.64;42.78
49943;BME280;36011;53.362;58.948;2022-12-20T14:12:02;96905.34;;;-11.73;42.80
49943;BME280;36011;53.362;58.948;2022-12-20T14:15:18;96910.38;;;-11.77;42.82
49943;BME280;36011;53.362;58.948;2022-12-20T14:18:21;96897.69;;;-11.75;43.65
49943;BME280;36011;53.362;58.948;2022-12-20T14:21:23;96896.19;;;-11.67;42.88
49943;BME280;36011;53.362;58.948;2022-12-20T14:24:27;96907.19;;;-11.66;42.86
49943;BME280;36011;53.362;58.948;2022-12-20T14:27:29;96898.63;;;-11.71;43.05
49943;BME280;36011;53.362;58.948;2022-12-20T14:30:40;96901.91;;;-11.76;42.93
49943;BME280;36011;53.362;58.948;2022-12-20T14:33:45;96908.63;;;-11.78;42.92
49943;BME280;36011;53.362;58.948;2022-12-20T14:36:46;96904.44;;;-11.77;42.99
49943;BME280;36011;53.362;58.948;2022-12-20T14:40:36;96912.19;;;-11.71;42.89
49943;BME280;36011;53.362;58.948;2022-12-20T14:43:20;96913.75;;;-11.76;43.16
49943;BME280;36011;53.362;58.948;2022-12-20T14:46:24;96913.69;;;-11.78;42.93
49943;BME280;36011;53.362;58.948;2022-12-20T14:49:32;96907.84;;;-11.75;43.03
49943;BME280;36011;53.362;58.948;2022-12-20T14:52:37;96912.13;;;-11.72;43.02
49943;BME280;36011;53.362;58.948;2022-12-20T14:55:43;96910.63;;;-11.64;42.99
49943;BME280;36011;53.362;58.948;2022-12-20T14:58:50;96912.41;;;-11.60;42.81
49943;BME280;36011;53.362;58.948;2022-12-20T15:02:49;96910.09;;;-11.49;42.99
49943;BME280;36011;53.362;58.948;2022-12-20T15:08:36;96917.81;;;-11.45;43.18
49943;BME280;36011;53.362;58.948;2022-12-20T15:11:40;96912.63;;;-11.51;43.29
49943;BME280;36011;53.362;58.948;2022-12-20T15:14:42;96916.66;;;-11.59;43.49
49943;BME280;36011;53.362;58.948;2022-12-20T15:17:48;96911.41;;;-11.68;43.87
49943;BME280;36011;53.362;58.948;2022-12-20T15:24:09;96913.69;;;-11.78;43.81
49943;BME280;36011;53.362;58.948;2022-12-20T15:27:13;96920.38;;;-11.83;44.33
49943;BME280;36011;53.362;58.948;2022-12-20T15:30:17;96925.53;;;-11.80;44.36
49943;BME280;36011;53.362;58.948;2022-12-20T15:33:22;96925.47;;;-11.83;44.18
49943;BME280;36011;53.362;58.948;2022-12-20T15:36:27;96922.72;;;-11.92;44.09
49943;BME280;36011;53.362;58.948;2022-12-20T15:39:35;96922.91;;;-11.83;44.39
49943;BME280;36011;53.362;58.948;2022-12-20T15:42:40;96919.47;;;-11.85;44.57
49943;BME280;36011;53.362;58.948;2022-12-20T15:45:46;96909.44;;;-11.80;45.00
49943;BME280;36011;53.362;58.948;2022-12-20T15:48:49;96913.88;;;-11.71;44.82
49943;BME280;36011;53.362;58.948;2022-12-20T15:51:56;96920.59;;;-11.73;44.89
49943;BME280;36011;53.362;58.948;2022-12-20T15:55:02;96919.59;;;-11.80;44.85
49943;BME280;36011;53.362;58.948;2022-12-20T15:58:07;96919.91;;;-12.04;45.34
49943;BME280;36011;53.362;58.948;2022-12-20T16:01:08;96914.75;;;-12.07;45.41
49943;BME280;36011;53.362;58.948;2022-12-20T16:04:15;96911.31;;;-12.09;45.81
49943;BME280;36011;53.362;58.948;2022-12-20T16:07:21;96915.47;;;-12.13;46.16
49943;BME280;36011;53.362;58.948;2022-12-20T16:10:27;96909.63;;;-12.10;45.57
49943;BME280;36011;53.362;58.948;2022-12-20T16:13:30;96915.41;;;-12.14;45.50
49943;BME280;36011;53.362;58.948;2022-12-20T16:16:34;96912.75;;;-12.21;45.76
49943;BME280;36011;53.362;58.948;2022-12-20T16:19:36;96913.28;;;-12.34;45.61
49943;BME280;36011;53.362;58.948;2022-12-20T16:22:36;96923.53;;;-12.29;46.17
49943;BME280;36011;53.362;58.948;2022-12-20T16:25:40;96920.25;;;-12.25;45.84
49943;BME280;36011;53.362;58.948;2022-12-20T16:28:44;96908.63;;;-12.17;46.19
49943;BME280;36011;53.362;58.948;2022-12-20T16:31:52;96906.94;;;-12.16;45.91
49943;BME280;36011;53.362;58.948;2022-12-20T16:34:58;96916.09;;;-12.22;45.94
49943;BME280;36011;53.362;58.948;2022-12-20T16:38:02;96917.66;;;-12.27;46.18
49943;BME280;36011;53.362;58.948;2022-12-20T16:41:10;96917.88;;;-12.17;46.17
49943;BME280;36011;53.362;58.948;2022-12-20T16:44:14;96910.28;;;-12.17;45.69
49943;BME280;36011;53.362;58.948;2022-12-20T16:47:20;96912.81;;;-12.17;45.86
49943;BME280;36011;53.362;58.948;2022-12-20T16:50:24;96909.47;;;-12.16;45.78
49943;BME280;36011;53.362;58.948;2022-12-20T16:53:31;96911.09;;;-12.18;46.23
49943;BME280;36011;53.362;58.948;2022-12-20T16:56:35;96905.03;;;-12.25;46.08
49943;BME280;36011;53.362;58.948;2022-12-20T16:59:38;96910.06;;;-12.27;46.11
49943;BME280;36011;53.362;58.948;2022-12-20T17:02:42;96909.53;;;-12.13;46.17
49943;BME280;36011;53.362;58.948;2022-12-20T17:05:43;96916.06;;;-12.23;45.84
49943;BME280;36011;53.362;58.948;2022-12-20T17:08:48;96909.22;;;-12.26;46.22
49943;BME280;36011;53.362;58.948;2022-12-20T17:11:52;96900.75;;;-12.28;46.28
49943;BME280;36011;53.362;58.948;2022-12-20T17:14:53;96899.78;;;-12.31;46.04
49943;BME280;36011;53.362;58.948;2022-12-20T17:17:54;96897.31;;;-12.30;46.19
49943;BME280;36011;53.362;58.948;2022-12-20T17:20:57;96905.56;;;-12.37;46.49
49943;BME280;36011;53.362;58.948;2022-12-20T17:24:01;96900.50;;;-12.37;46.52
49943;BME280;36011;53.362;58.948;2022-12-20T17:27:05;96893.72;;;-12.38;46.26
49943;BME280;36011;53.362;58.948;2022-12-20T17:30:08;96897.91;;;-12.40;46.30
49943;BME280;36011;53.362;58.948;2022-12-20T17:33:12;96896.94;;;-12.45;46.49
49943;BME280;36011;53.362;58.948;2022-12-20T17:36:16;96894.50;;;-12.40;46.14
49943;BME280;36011;53.362;58.948;2022-12-20T17:39:20;96899.78;;;-12.31;46.25
49943;BME280;36011;53.362;58.948;2022-12-20T17:42:23;96905.34;;;-12.46;46.33
49943;BME280;36011;53.362;58.948;2022-12-20T17:45:28;96901.91;;;-12.48;46.74
49943;BME280;36011;53.362;58.948;2022-12-20T17:48:32;96897.81;;;-12.45;46.89
49943;BME280;36011;53.362;58.948;2022-12-20T17:51:33;96888.28;;;-12.53;47.00
49943;BME280;36011;53.362;58.948;2022-12-20T17:54:34;96897.47;;;-12.58;46.59
49943;BME280;36011;53.362;58.948;2022-12-20T17:57:40;96897.41;;;-12.60;46.84
49943;BME280;36011;53.362;58.948;2022-12-20T18:00:46;96888.88;;;-12.63;47.36
49943;BME280;36011;53.362;58.948;2022-12-20T18:03:51;96899.06;;;-12.62;46.92